sensor_id;sensor_type;location;lat;lon;timestamp;pressure;altitude;pressure_sealevel;temperature;humidity
4858;BME280;58975;51.978;8.472;2024-02-21T00:02:39;100934.25;;;7.34;100.00
4858;BME280;58975;51.978;8.472;2024-02-21T00:07:35;100929.91;;;7.33;100.00
4858;BME280;58975;51.978;8.472;2024-02-21T00:12:31;100931.78;;;7.31;100.00
4858;BME280;58975;51.978;8.472;2024-02-21T00:17:28;100930.84;;;7.32;100.00
4858;BME280;58975;51.978;8.472;2024-02-21T00:22:24;100926.50;;;7.31;100.00
4858;BME280;58975;51.978;8.472;2024-02-21T00:27:24;100920.25;;;7.32;100.00
4858;BME280;58975;51.978;8.472;2024-02-21T00:32:21;100902.47;;;7.34;100.00
4858;BME280;58975;51.978;8.472;2024-02-21T00:37:17;100902.66;;;7.31;100.00
4858;BME280;58975;51.978;8.472;2024-02-21T00:42:13;100888.28;;;7.35;100.00
4858;BME280;58975;51.978;8.472;2024-02-21T00:47:10;100874.09;;;7.36;100.00
4858;BME280;58975;51.978;8.472;2024-02-21T00:52:06;100872.38;;;7.35;100.00
4858;BME280;58975;51.978;8.472;2024-02-21T00:57:03;100868.78;;;7.36;100.00
4858;BME280;58975;51.978;8.472;2024-02-21T01:01:59;100854.59;;;7.37;100.00
4858;BME280;58975;51.978;8.472;2024-02-21T01:06:56;100850.25;;;7.36;100.00
4858;BME280;58975;51.978;8.472;2024-02-21T01:11:52;100846.66;;;7.37;100.00
4858;BME280;58975;51.978;8.472;2024-02-21T01:16:49;100857.16;;;7.38;100.00
4858;BME280;58975;51.978;8.472;2024-02-21T01:21:45;100860.72;;;7.37;100.00
4858;BME280;58975;51.978;8.472;2024-02-21T01:26:42;100853.56;;;7.39;100.00
4858;BME280;58975;51.978;8.472;2024-02-21T01:31:38;100843.03;;;7.38;100.00
4858;BME280;58975;51.978;8.472;2024-02-21T01:36:34;100833.97;;;7.42;100.00
4858;BME280;58975;51.978;8.472;2024-02-21T01:41:31;100824.50;;;7.38;100.00
4858;BME280;58975;51.978;8.472;2024-02-21T01:46:28;100819.19;;;7.38;100.00
4858;BME280;58975;51.978;8.472;2024-02-21T01:51:27;100819.19;;;7.38;100.00
4858;BME280;58975;51.978;8.472;2024-02-21T01:56:24;100809.56;;;7.37;100.00
4858;BME280;58975;51.978;8.472;2024-02-21T02:01:20;100806.91;;;7.37;100.00
4858;BME280;58975;51.978;8.472;2024-02-21T02:06:18;100786.38;;;7.40;100.00
4858;BME280;58975;51.978;8.472;2024-02-21T02:11:14;100780.22;;;7.40;100.00
4858;BME280;58975;51.978;8.472;2024-02-21T02:16:11;100774.06;;;7.39;100.00
4858;BME280;58975;51.978;8.472;2024-02-21T02:21:11;100770.56;;;7.39;100.00
4858;BME280;58975;51.978;8.472;2024-02-21T02:26:10;100763.38;;;7.41;100.00
4858;BME280;58975;51.978;8.472;2024-02-21T02:31:06;100769.34;;;7.44;100.00
4858;BME280;58975;51.978;8.472;2024-02-21T02:36:03;100769.34;;;7.44;100.00
4858;BME280;58975;51.978;8.472;2024-02-21T02:40:59;100764.13;;;7.43;100.00
4858;BME280;58975;51.978;8.472;2024-02-21T02:45:56;100751.75;;;7.43;100.00
4858;BME280;58975;51.978;8.472;2024-02-21T02:50:53;100741.13;;;7.43;100.00
4858;BME280;58975;51.978;8.472;2024-02-21T02:55:49;100721.75;;;7.43;100.00
4858;BME280;58975;51.978;8.472;2024-02-21T03:00:46;100712.00;;;7.43;100.00
4858;BME280;58975;51.978;8.472;2024-02-21T03:05:42;100701.28;;;7.45;100.00
4858;BME280;58975;51.978;8.472;2024-02-21T03:10:39;100689.75;;;7.46;100.00
4858;BME280;58975;51.978;8.472;2024-02-21T03:15:37;100672.69;;;7.50;100.00
4858;BME280;58975;51.978;8.472;2024-02-21T03:20:33;100672.81;;;7.48;100.00
4858;BME280;58975;51.978;8.472;2024-02-21T03:25:30;100663.81;;;7.51;100.00
4858;BME280;58975;51.978;8.472;2024-02-21T03:30:26;100671.75;;;7.51;100.00
4858;BME280;58975;51.978;8.472;2024-02-21T03:35:23;100678.00;;;7.50;100.00
4858;BME280;58975;51.978;8.472;2024-02-21T03:40:22;100683.22;;;7.51;100.00
4858;BME280;58975;51.978;8.472;2024-02-21T03:45:19;100692.97;;;7.51;100.00
4858;BME280;58975;51.978;8.472;2024-02-21T03:50:15;100700.06;;;7.50;100.00
4858;BME280;58975;51.978;8.472;2024-02-21T03:55:12;100692.97;;;7.51;100.00
4858;BME280;58975;51.978;8.472;2024-02-21T04:00:09;100699.13;;;7.51;100.00
4858;BME280;58975;51.978;8.472;2024-02-21T04:05:07;100690.50;;;7.48;100.00
4858;BME280;58975;51.978;8.472;2024-02-21T04:10:08;100685.94;;;7.50;100.00
4858;BME280;58975;51.978;8.472;2024-02-21T04:15:04;100682.16;;;7.54;100.00
4858;BME280;58975;51.978;8.472;2024-02-21T04:20:03;100680.66;;;7.50;100.00
4858;BME280;58975;51.978;8.472;2024-02-21T04:25:05;100693.25;;;7.46;100.00
4858;BME280;58975;51.978;8.472;2024-02-21T04:30:03;100684.44;;;7.46;100.00
4858;BME280;58975;51.978;8.472;2024-02-21T04:34:59;100687.94;;;7.46;100.00
4858;BME280;58975;51.978;8.472;2024-02-21T04:39:56;100683.78;;;7.42;100.00
4858;BME280;58975;51.978;8.472;2024-02-21T04:44:52;100688.03;;;7.45;100.00
4858;BME280;58975;51.978;8.472;2024-02-21T04:49:49;100688.03;;;7.45;100.00
4858;BME280;58975;51.978;8.472;2024-02-21T04:54:46;100683.69;;;7.44;100.00
4858;BME280;58975;51.978;8.472;2024-02-21T04:59:45;100700.53;;;7.43;100.00
4858;BME280;58975;51.978;8.472;2024-02-21T05:04:44;100700.63;;;7.41;100.00
4858;BME280;58975;51.978;8.472;2024-02-21T05:09:42;100702.44;;;7.41;100.00
4858;BME280;58975;51.978;8.472;2024-02-21T05:14:38;100696.19;;;7.28;100.00
4858;BME280;58975;51.978;8.472;2024-02-21T05:19:35;100675.69;;;7.17;100.00
4858;BME280;58975;51.978;8.472;2024-02-21T05:24:31;100674.06;;;7.14;100.00
4858;BME280;58975;51.978;8.472;2024-02-21T05:29:28;100660.56;;;7.05;100.00
4858;BME280;58975;51.978;8.472;2024-02-21T05:34:24;100654.69;;;7.00;100.00
4858;BME280;58975;51.978;8.472;2024-02-21T05:39:21;100660.63;;;7.03;100.00
4858;BME280;58975;51.978;8.472;2024-02-21T05:44:19;100652.41;;;7.08;100.00
4858;BME280;58975;51.978;8.472;2024-02-21T05:49:15;100645.31;;;7.08;100.00
4858;BME280;58975;51.978;8.472;2024-02-21T05:54:12;100645.13;;;7.11;100.00
4858;BME280;58975;51.978;8.472;2024-02-21T05:59:08;100629.97;;;7.13;100.00
4858;BME280;58975;51.978;8.472;2024-02-21T06:04:05;100621.84;;;7.17;100.00
4858;BME280;58975;51.978;8.472;2024-02-21T06:09:01;100624.50;;;7.17;100.00
4858;BME280;58975;51.978;8.472;2024-02-21T06:13:59;100631.69;;;7.14;100.00
4858;BME280;58975;51.978;8.472;2024-02-21T06:18:55;100629.81;;;7.17;100.00
4858;BME280;58975;51.978;8.472;2024-02-21T06:23:52;100632.47;;;7.17;100.00
4858;BME280;58975;51.978;8.472;2024-02-21T06:28:48;100628.75;;;7.19;100.00
4858;BME280;58975;51.978;8.472;2024-02-21T06:33:44;100621.66;;;7.20;100.00
4858;BME280;58975;51.978;8.472;2024-02-21T06:38:41;100604.44;;;7.27;100.00
4858;BME280;58975;51.978;8.472;2024-02-21T06:43:37;100587.47;;;7.29;100.00
4858;BME280;58975;51.978;8.472;2024-02-21T06:48:34;100573.94;;;7.34;100.00
4858;BME280;58975;51.978;8.472;2024-02-21T06:53:30;100573.56;;;7.40;100.00
4858;BME280;58975;51.978;8.472;2024-02-21T06:58:27;100565.00;;;7.49;100.00
4858;BME280;58975;51.978;8.472;2024-02-21T07:03:23;100565.13;;;7.47;100.00
4858;BME280;58975;51.978;8.472;2024-02-21T07:08:20;100552.91;;;7.45;100.00
4858;BME280;58975;51.978;8.472;2024-02-21T07:13:18;100552.91;;;7.45;100.00
4858;BME280;58975;51.978;8.472;2024-02-21T07:18:15;100565.00;;;7.49;100.00
4858;BME280;58975;51.978;8.472;2024-02-21T07:23:12;100563.97;;;7.51;100.00
4858;BME280;58975;51.978;8.472;2024-02-21T07:28:08;100575.41;;;7.52;100.00
4858;BME280;58975;51.978;8.472;2024-02-21T07:33:05;100576.06;;;7.55;100.00
4858;BME280;58975;51.978;8.472;2024-02-21T07:38:04;100576.72;;;7.59;100.00
4858;BME280;58975;51.978;8.472;2024-02-21T07:43:01;100576.72;;;7.59;100.00
4858;BME280;58975;51.978;8.472;2024-02-21T07:47:57;100570.25;;;7.63;100.00
4858;BME280;58975;51.978;8.472;2024-02-21T07:52:54;100568.16;;;7.68;100.00
4858;BME280;58975;51.978;8.472;2024-02-21T07:57:50;100559.25;;;7.69;100.00
4858;BME280;58975;51.978;8.472;2024-02-21T08:02:48;100568.50;;;7.76;100.00
4858;BME280;58975;51.978;8.472;2024-02-21T08:07:45;100563.94;;;7.78;100.00
4858;BME280;58975;51.978;8.472;2024-02-21T08:12:41;100553.91;;;7.83;100.00
4858;BME280;58975;51.978;8.472;2024-02-21T08:17:38;100540.63;;;7.83;100.00
4858;BME280;58975;51.978;8.472;2024-02-21T08:22:37;100539.88;;;7.81;100.00
4858;BME280;58975;51.978;8.472;2024-02-21T08:27:33;100513.69;;;7.89;100.00
4858;BME280;58975;51.978;8.472;2024-02-21T08:32:30;100510.75;;;8.06;100.00
4858;BME280;58975;51.978;8.472;2024-02-21T08:37:27;100507.19;;;8.33;100.00
4858;BME280;58975;51.978;8.472;2024-02-21T08:42:24;100499.53;;;8.41;100.00
4858;BME280;58975;51.978;8.472;2024-02-21T08:47:20;100494.13;;;8.42;100.00
4858;BME280;58975;51.978;8.472;2024-02-21T08:52:16;100492.03;;;8.35;100.00
4858;BME280;58975;51.978;8.472;2024-02-21T08:57:13;100483.16;;;8.47;100.00
4858;BME280;58975;51.978;8.472;2024-02-21T09:02:12;100478.22;;;8.42;100.00
4858;BME280;58975;51.978;8.472;2024-02-21T09:07:10;100472.78;;;8.44;100.00
4858;BME280;58975;51.978;8.472;2024-02-21T09:12:06;100476.81;;;8.49;100.00
4858;BME280;58975;51.978;8.472;2024-02-21T09:17:03;100478.16;;;8.55;100.00
4858;BME280;58975;51.978;8.472;2024-02-21T09:22:00;100471.03;;;8.68;100.00
4858;BME280;58975;51.978;8.472;2024-02-21T09:26:56;100470.75;;;8.60;100.00
4858;BME280;58975;51.978;8.472;2024-02-21T09:31:52;100476.75;;;8.75;100.00
4858;BME280;58975;51.978;8.472;2024-02-21T09:36:49;100472.06;;;8.78;100.00
4858;BME280;58975;51.978;8.472;2024-02-21T09:41:50;100470.88;;;8.82;100.00
4858;BME280;58975;51.978;8.472;2024-02-21T09:47:02;100447.41;;;8.89;100.00
4858;BME280;58975;51.978;8.472;2024-02-21T09:52:03;100435.72;;;8.91;100.00
4858;BME280;58975;51.978;8.472;2024-02-21T09:57:01;100422.19;;;8.94;100.00
4858;BME280;58975;51.978;8.472;2024-02-21T10:01:57;100422.06;;;9.09;100.00
4858;BME280;58975;51.978;8.472;2024-02-21T10:06:56;100422.06;;;9.09;100.00
4858;BME280;58975;51.978;8.472;2024-02-21T10:11:54;100406.53;;;9.26;100.00
4858;BME280;58975;51.978;8.472;2024-02-21T10:16:57;100413.97;;;9.45;100.00
4858;BME280;58975;51.978;8.472;2024-02-21T10:22:04;100401.19;;;9.15;99.13
4858;BME280;58975;51.978;8.472;2024-02-21T10:27:05;100408.16;;;9.05;99.69
4858;BME280;58975;51.978;8.472;2024-02-21T10:32:05;100404.59;;;8.93;99.91
4858;BME280;58975;51.978;8.472;2024-02-21T10:37:04;100410.63;;;8.95;100.00
4858;BME280;58975;51.978;8.472;2024-02-21T10:42:02;100405.59;;;9.03;100.00
4858;BME280;58975;51.978;8.472;2024-02-21T10:47:11;100399.03;;;8.96;100.00
4858;BME280;58975;51.978;8.472;2024-02-21T10:52:14;100377.22;;;9.04;100.00
4858;BME280;58975;51.978;8.472;2024-02-21T10:57:13;100376.75;;;8.86;100.00
4858;BME280;58975;51.978;8.472;2024-02-21T11:02:10;100368.31;;;8.81;100.00
4858;BME280;58975;51.978;8.472;2024-02-21T11:07:07;100362.94;;;8.70;100.00
4858;BME280;58975;51.978;8.472;2024-02-21T11:12:07;100348.53;;;8.85;100.00
4858;BME280;58975;51.978;8.472;2024-02-21T11:17:18;100341.34;;;8.98;100.00
4858;BME280;58975;51.978;8.472;2024-02-21T11:22:16;100328.09;;;9.10;100.00
4858;BME280;58975;51.978;8.472;2024-02-21T11:27:16;100318.72;;;9.17;100.00
4858;BME280;58975;51.978;8.472;2024-02-21T11:32:17;100302.28;;;9.23;100.00
4858;BME280;58975;51.978;8.472;2024-02-21T11:37:15;100292.22;;;9.04;100.00
4858;BME280;58975;51.978;8.472;2024-02-21T11:42:14;100279.75;;;8.93;100.00
4858;BME280;58975;51.978;8.472;2024-02-21T11:47:10;100269.09;;;8.82;100.00
4858;BME280;58975;51.978;8.472;2024-02-21T11:52:07;100261.13;;;8.82;100.00
4858;BME280;58975;51.978;8.472;2024-02-21T11:57:04;100252.69;;;8.88;100.00
4858;BME280;58975;51.978;8.472;2024-02-21T12:02:01;100249.00;;;8.67;100.00
4858;BME280;58975;51.978;8.472;2024-02-21T12:06:59;100238.16;;;8.70;100.00
4858;BME280;58975;51.978;8.472;2024-02-21T12:12:01;100248.41;;;8.75;100.00
4858;BME280;58975;51.978;8.472;2024-02-21T12:17:01;100237.97;;;8.84;100.00
4858;BME280;58975;51.978;8.472;2024-02-21T12:22:00;100222.88;;;8.85;100.00
4858;BME280;58975;51.978;8.472;2024-02-21T12:26:57;100217.44;;;8.86;100.00
4858;BME280;58975;51.978;8.472;2024-02-21T12:31:55;100207.28;;;8.69;100.00
4858;BME280;58975;51.978;8.472;2024-02-21T12:36:51;100203.78;;;8.80;100.00
4858;BME280;58975;51.978;8.472;2024-02-21T12:41:48;100188.72;;;8.91;100.00
4858;BME280;58975;51.978;8.472;2024-02-21T12:46:44;100163.72;;;8.94;100.00
4858;BME280;58975;51.978;8.472;2024-02-21T12:51:41;100145.28;;;9.15;100.00
4858;BME280;58975;51.978;8.472;2024-02-21T12:56:38;100145.03;;;8.95;100.00
4858;BME280;58975;51.978;8.472;2024-02-21T13:01:36;100147.78;;;8.94;100.00
4858;BME280;58975;51.978;8.472;2024-02-21T13:06:34;100128.63;;;9.01;100.00
4858;BME280;58975;51.978;8.472;2024-02-21T13:11:34;100109.44;;;9.09;100.00
4858;BME280;58975;51.978;8.472;2024-02-21T13:16:30;100079.81;;;9.14;100.00
4858;BME280;58975;51.978;8.472;2024-02-21T13:21:27;100030.63;;;9.41;100.00
4858;BME280;58975;51.978;8.472;2024-02-21T13:26:23;100020.41;;;9.37;100.00
4858;BME280;58975;51.978;8.472;2024-02-21T13:31:20;100023.28;;;9.34;100.00
4858;BME280;58975;51.978;8.472;2024-02-21T13:36:17;100020.66;;;9.23;100.00
4858;BME280;58975;51.978;8.472;2024-02-21T13:41:14;99986.72;;;9.15;100.00
4858;BME280;58975;51.978;8.472;2024-02-21T13:46:10;99966.34;;;9.16;100.00
4858;BME280;58975;51.978;8.472;2024-02-21T13:51:07;99945.56;;;9.10;100.00
4858;BME280;58975;51.978;8.472;2024-02-21T13:56:04;99909.06;;;9.23;100.00
4858;BME280;58975;51.978;8.472;2024-02-21T14:01:01;99891.94;;;9.16;99.85
4858;BME280;58975;51.978;8.472;2024-02-21T14:05:58;99923.25;;;9.12;100.00
4858;BME280;58975;51.978;8.472;2024-02-21T14:10:55;99931.06;;;9.14;100.00
4858;BME280;58975;51.978;8.472;2024-02-21T14:15:52;99900.38;;;9.21;100.00
4858;BME280;58975;51.978;8.472;2024-02-21T14:20:49;99876.88;;;9.37;98.88
4858;BME280;58975;51.978;8.472;2024-02-21T14:25:45;99878.44;;;9.39;98.94
4858;BME280;58975;51.978;8.472;2024-02-21T14:30:42;99856.78;;;9.44;97.47
4858;BME280;58975;51.978;8.472;2024-02-21T14:35:39;99857.88;;;9.41;97.15
4858;BME280;58975;51.978;8.472;2024-02-21T14:40:36;99853.88;;;9.47;96.47
4858;BME280;58975;51.978;8.472;2024-02-21T14:45:32;99824.94;;;9.54;95.32
4858;BME280;58975;51.978;8.472;2024-02-21T14:50:29;99803.53;;;9.76;95.00
4858;BME280;58975;51.978;8.472;2024-02-21T14:55:25;99782.94;;;9.68;93.34
4858;BME280;58975;51.978;8.472;2024-02-21T15:00:22;99778.97;;;9.63;92.39
4858;BME280;58975;51.978;8.472;2024-02-21T15:05:25;99751.09;;;9.57;91.56
4858;BME280;58975;51.978;8.472;2024-02-21T15:10:22;99750.59;;;9.42;91.61
4858;BME280;58975;51.978;8.472;2024-02-21T15:15:18;99744.72;;;9.39;92.75
4858;BME280;58975;51.978;8.472;2024-02-21T15:20:15;99742.44;;;9.34;93.34
4858;BME280;58975;51.978;8.472;2024-02-21T15:25:11;99708.09;;;9.42;93.08
4858;BME280;58975;51.978;8.472;2024-02-21T15:30:12;99682.06;;;9.36;92.97
4858;BME280;58975;51.978;8.472;2024-02-21T15:35:09;99679.53;;;9.35;93.19
4858;BME280;58975;51.978;8.472;2024-02-21T15:40:07;99675.16;;;9.34;93.28
4858;BME280;58975;51.978;8.472;2024-02-21T15:45:05;99665.78;;;9.30;93.41
4858;BME280;58975;51.978;8.472;2024-02-21T15:50:03;99658.22;;;9.25;93.55
4858;BME280;58975;51.978;8.472;2024-02-21T15:55:00;99646.84;;;9.14;94.04
4858;BME280;58975;51.978;8.472;2024-02-21T15:59:57;99642.75;;;9.10;93.65
4858;BME280;58975;51.978;8.472;2024-02-21T16:04:54;99627.38;;;9.03;94.28
4858;BME280;58975;51.978;8.472;2024-02-21T16:09:53;99623.38;;;8.88;96.26
4858;BME280;58975;51.978;8.472;2024-02-21T16:14:49;99619.09;;;8.97;96.05
4858;BME280;58975;51.978;8.472;2024-02-21T16:19:46;99616.66;;;8.84;96.53
4858;BME280;58975;51.978;8.472;2024-02-21T16:24:42;99616.91;;;8.81;97.49
4858;BME280;58975;51.978;8.472;2024-02-21T16:29:39;99617.69;;;8.72;99.07
4858;BME280;58975;51.978;8.472;2024-02-21T16:34:36;99602.03;;;8.69;99.93
4858;BME280;58975;51.978;8.472;2024-02-21T16:39:32;99601.31;;;8.67;99.31
4858;BME280;58975;51.978;8.472;2024-02-21T16:44:29;99591.41;;;8.69;98.90
4858;BME280;58975;51.978;8.472;2024-02-21T16:49:27;99584.88;;;8.73;98.50
4858;BME280;58975;51.978;8.472;2024-02-21T16:54:27;99575.50;;;8.69;98.24
4858;BME280;58975;51.978;8.472;2024-02-21T16:59:24;99573.53;;;8.71;98.38
4858;BME280;58975;51.978;8.472;2024-02-21T17:04:22;99574.75;;;8.67;97.83
4858;BME280;58975;51.978;8.472;2024-02-21T17:09:18;99578.72;;;8.52;99.25
4858;BME280;58975;51.978;8.472;2024-02-21T17:14:15;99561.84;;;8.53;99.29
4858;BME280;58975;51.978;8.472;2024-02-21T17:19:12;99559.97;;;8.44;99.08
4858;BME280;58975;51.978;8.472;2024-02-21T17:24:08;99556.63;;;8.42;99.34
4858;BME280;58975;51.978;8.472;2024-02-21T17:29:05;99552.19;;;8.52;98.48
4858;BME280;58975;51.978;8.472;2024-02-21T17:34:01;99536.81;;;8.46;98.03
4858;BME280;58975;51.978;8.472;2024-02-21T17:38:59;99529.81;;;8.45;97.17
4858;BME280;58975;51.978;8.472;2024-02-21T17:43:55;99514.78;;;8.55;94.99
4858;BME280;58975;51.978;8.472;2024-02-21T17:48:52;99505.16;;;8.54;93.73
4858;BME280;58975;51.978;8.472;2024-02-21T17:53:48;99489.97;;;8.66;91.55
4858;BME280;58975;51.978;8.472;2024-02-21T17:58:45;99481.88;;;8.67;89.56
4858;BME280;58975;51.978;8.472;2024-02-21T18:03:42;99469.03;;;8.72;88.46
4858;BME280;58975;51.978;8.472;2024-02-21T18:08:39;99454.81;;;8.73;86.67
4858;BME280;58975;51.978;8.472;2024-02-21T18:13:36;99432.47;;;8.85;85.47
4858;BME280;58975;51.978;8.472;2024-02-21T18:18:33;99422.56;;;8.87;84.41
4858;BME280;58975;51.978;8.472;2024-02-21T18:23:30;99406.34;;;8.81;84.72
4858;BME280;58975;51.978;8.472;2024-02-21T18:28:26;99391.94;;;8.74;85.07
4858;BME280;58975;51.978;8.472;2024-02-21T18:33:22;99388.00;;;8.68;86.01
4858;BME280;58975;51.978;8.472;2024-02-21T18:38:19;99372.63;;;8.62;86.57
4858;BME280;58975;51.978;8.472;2024-02-21T18:43:16;99344.97;;;8.65;86.92
4858;BME280;58975;51.978;8.472;2024-02-21T18:48:12;99342.16;;;8.57;87.63
4858;BME280;58975;51.978;8.472;2024-02-21T18:53:11;99328.19;;;8.54;87.43
4858;BME280;58975;51.978;8.472;2024-02-21T18:58:08;99317.44;;;8.46;86.87
4858;BME280;58975;51.978;8.472;2024-02-21T19:03:04;99312.53;;;8.42;86.86
4858;BME280;58975;51.978;8.472;2024-02-21T19:08:01;99299.66;;;8.37;87.92
4858;BME280;58975;51.978;8.472;2024-02-21T19:12:57;99282.03;;;8.27;87.93
4858;BME280;58975;51.978;8.472;2024-02-21T19:17:54;99284.28;;;8.31;88.60
4858;BME280;58975;51.978;8.472;2024-02-21T19:22:50;99264.00;;;8.21;88.81
4858;BME280;58975;51.978;8.472;2024-02-21T19:27:47;99261.31;;;8.11;91.00
4858;BME280;58975;51.978;8.472;2024-02-21T19:32:44;99263.81;;;8.03;92.90
4858;BME280;58975;51.978;8.472;2024-02-21T19:37:41;99264.88;;;7.91;95.54
4858;BME280;58975;51.978;8.472;2024-02-21T19:42:37;99257.59;;;7.83;99.24
4858;BME280;58975;51.978;8.472;2024-02-21T19:47:34;99260.19;;;7.64;100.00
4858;BME280;58975;51.978;8.472;2024-02-21T19:52:33;99256.34;;;7.57;100.00
4858;BME280;58975;51.978;8.472;2024-02-21T19:57:30;99239.47;;;7.48;100.00
4858;BME280;58975;51.978;8.472;2024-02-21T20:02:26;99234.00;;;7.40;100.00
4858;BME280;58975;51.978;8.472;2024-02-21T20:07:23;99208.41;;;7.30;100.00
4858;BME280;58975;51.978;8.472;2024-02-21T20:12:21;99200.72;;;7.27;100.00
4858;BME280;58975;51.978;8.472;2024-02-21T20:17:20;99191.75;;;7.18;100.00
4858;BME280;58975;51.978;8.472;2024-02-21T20:22:18;99169.72;;;7.18;100.00
4858;BME280;58975;51.978;8.472;2024-02-21T20:27:16;99170.00;;;7.14;100.00
4858;BME280;58975;51.978;8.472;2024-02-21T20:32:13;99157.50;;;7.17;100.00
4858;BME280;58975;51.978;8.472;2024-02-21T20:37:10;99145.44;;;7.03;100.00
4858;BME280;58975;51.978;8.472;2024-02-21T20:42:07;99145.31;;;7.04;100.00
4858;BME280;58975;51.978;8.472;2024-02-21T20:47:04;99136.41;;;7.05;100.00
4858;BME280;58975;51.978;8.472;2024-02-21T20:52:02;99144.59;;;7.02;100.00
4858;BME280;58975;51.978;8.472;2024-02-21T20:56:59;99123.78;;;6.98;100.00
4858;BME280;58975;51.978;8.472;2024-02-21T21:01:55;99114.78;;;7.00;100.00
4858;BME280;58975;51.978;8.472;2024-02-21T21:06:59;99115.84;;;6.98;100.00
4858;BME280;58975;51.978;8.472;2024-02-21T21:11:56;99098.31;;;6.97;100.00
4858;BME280;58975;51.978;8.472;2024-02-21T21:16:53;99100.25;;;6.95;100.00
4858;BME280;58975;51.978;8.472;2024-02-21T21:21:49;99098.06;;;7.00;100.00
4858;BME280;58975;51.978;8.472;2024-02-21T21:26:46;99078.84;;;7.07;100.00
4858;BME280;58975;51.978;8.472;2024-02-21T21:31:42;99062.69;;;7.10;100.00
4858;BME280;58975;51.978;8.472;2024-02-21T21:36:40;99042.53;;;7.19;100.00
4858;BME280;58975;51.978;8.472;2024-02-21T21:41:36;99040.44;;;7.23;100.00
4858;BME280;58975;51.978;8.472;2024-02-21T21:46:33;99038.53;;;7.34;100.00
4858;BME280;58975;51.978;8.472;2024-02-21T21:51:29;99026.00;;;7.46;100.00
4858;BME280;58975;51.978;8.472;2024-02-21T21:56:26;99018.91;;;7.56;100.00
4858;BME280;58975;51.978;8.472;2024-02-21T22:01:26;99004.00;;;7.55;100.00
4858;BME280;58975;51.978;8.472;2024-02-21T22:06:24;99012.50;;;7.58;100.00
4858;BME280;58975;51.978;8.472;2024-02-21T22:11:21;98997.72;;;7.56;100.00
4858;BME280;58975;51.978;8.472;2024-02-21T22:16:18;98986.41;;;7.44;100.00
4858;BME280;58975;51.978;8.472;2024-02-21T22:21:14;98979.88;;;7.48;100.00
4858;BME280;58975;51.978;8.472;2024-02-21T22:26:13;98977.19;;;7.39;100.00
4858;BME280;58975;51.978;8.472;2024-02-21T22:31:15;98967.19;;;7.33;100.00
4858;BME280;58975;51.978;8.472;2024-02-21T22:36:11;98958.78;;;7.37;100.00
4858;BME280;58975;51.978;8.472;2024-02-21T22:41:16;98948.06;;;7.29;100.00
4858;BME280;58975;51.978;8.472;2024-02-21T22:46:12;98947.25;;;7.29;100.00
4858;BME280;58975;51.978;8.472;2024-02-21T22:51:09;98940.94;;;7.30;100.00
4858;BME280;58975;51.978;8.472;2024-02-21T22:56:06;98926.19;;;7.27;100.00
4858;BME280;58975;51.978;8.472;2024-02-21T23:01:03;98918.13;;;7.29;100.00
4858;BME280;58975;51.978;8.472;2024-02-21T23:06:00;98913.34;;;7.23;100.00
4858;BME280;58975;51.978;8.472;2024-02-21T23:10:58;98908.34;;;7.20;100.00
4858;BME280;58975;51.978;8.472;2024-02-21T23:15:56;98901.66;;;7.25;100.00
4858;BME280;58975;51.978;8.472;2024-02-21T23:20:53;98889.94;;;7.18;100.00
4858;BME280;58975;51.978;8.472;2024-02-21T23:25:49;98883.97;;;7.16;100.00
4858;BME280;58975;51.978;8.472;2024-02-21T23:30:46;98879.34;;;7.08;100.00
4858;BME280;58975;51.978;8.472;2024-02-21T23:35:42;98880.44;;;7.06;100.00
4858;BME280;58975;51.978;8.472;2024-02-21T23:40:40;98865.41;;;7.06;100.00
4858;BME280;58975;51.978;8.472;2024-02-21T23:45:36;98865.69;;;7.03;100.00
4858;BME280;58975;51.978;8.472;2024-02-21T23:50:32;98857.75;;;7.03;100.00
4858;BME280;58975;51.978;8.472;2024-02-21T23:55:29;98846.88;;;7.06;100.00
